Estación de La Piedad

Ultimos registro cada 15 minutos 63
Estación Fecha / Hora Temperatura Humedad Lluvia Velocidad Dirección Radiación Presion
63 La Piedad 06-05-2026 15:30 16,3 81 0 3,1 260 199 1018,8
62 La Piedad 06-05-2026 15:15 16,3 81 0 3,1 260 199 1018,8
61 La Piedad 06-05-2026 15:00 15,8 81 0 1,8 283 190 1018,6
60 La Piedad 06-05-2026 14:45 15,9 82 0 1,3 265 188 1018,2
59 La Piedad 06-05-2026 14:30 16,3 83 0 1,8 230 214 1017,5
58 La Piedad 06-05-2026 14:15 16,3 83 0 1,8 230 214 1017,5
57 La Piedad 06-05-2026 14:00 16,9 85 0 2,2 244 468 1017,1
56 La Piedad 06-05-2026 13:45 15,9 86 0 0,9 285 301 1016,7
55 La Piedad 06-05-2026 13:30 15,1 91 0 2,7 262 188 1016,1
54 La Piedad 06-05-2026 13:15 15,1 91 0 2,7 262 188 1016,1
53 La Piedad 06-05-2026 13:00 14,9 92 0 1,3 252 211 1015,8
52 La Piedad 06-05-2026 12:45 15,1 95 0,6 2,7 260 237 1015,5
51 La Piedad 06-05-2026 12:30 14,6 97 0,6 2,2 327 70 1014,4
50 La Piedad 06-05-2026 12:15 14,6 97 0,6 2,2 327 70 1014,4
49 La Piedad 06-05-2026 12:00 14,3 97 0 1,3 325 107 1014,3
48 La Piedad 06-05-2026 11:45 14,3 97 0,2 0,9 354 81 1014,3
47 La Piedad 06-05-2026 11:30 13,9 97 0,2 3,6 37 114 1013,5
46 La Piedad 06-05-2026 11:15 13,9 97 0,2 3,6 37 114 1013,5
45 La Piedad 06-05-2026 11:00 13,7 97 1 2,2 331 63 1013,1
44 La Piedad 06-05-2026 10:45 13,6 96 4 2,2 38 7 1013,3
43 La Piedad 06-05-2026 10:30 13,7 96 0,4 2,2 8 16 1013
42 La Piedad 06-05-2026 10:15 13,7 96 0,4 2,2 8 16 1013
41 La Piedad 06-05-2026 10:00 13,7 96 0 2,7 37 77 1013,2
40 La Piedad 06-05-2026 09:45 13,4 97 0,4 3,1 8 56 1012,6
39 La Piedad 06-05-2026 09:30 13,2 96 2,2 0,4 8 12 1012,4
38 La Piedad 06-05-2026 09:15 13,2 96 2,2 0,4 8 12 1012,4
37 La Piedad 06-05-2026 09:00 13,3 96 0,2 1,8 27 12 1012,3
36 La Piedad 06-05-2026 08:45 13,2 96 0 2,7 7 18 1011,9
35 La Piedad 06-05-2026 08:30 13,1 96 0,4 1,3 39 12 1012
34 La Piedad 06-05-2026 08:15 13,1 96 0,4 1,3 39 12 1012
33 La Piedad 06-05-2026 08:00 13,1 96 0,2 1,3 37 5 1012,1
32 La Piedad 06-05-2026 07:45 13,1 96 0 1,8 4 0 1012,1
31 La Piedad 06-05-2026 07:30 13,1 96 0,2 0,9 44 0 1012
30 La Piedad 06-05-2026 07:15 13,1 96 0,2 0,9 44 0 1012
29 La Piedad 06-05-2026 07:00 13,1 96 0,2 1,3 2 0 1012
28 La Piedad 06-05-2026 06:45 13,1 96 0,4 0,4 339 0 1012
27 La Piedad 06-05-2026 06:30 13,2 95 2 1,8 15 0 1011,6
26 La Piedad 06-05-2026 06:15 13,2 95 2 1,8 15 0 1011,6
25 La Piedad 06-05-2026 06:00 13,3 95 0,8 0,9 15 0 1011,2
24 La Piedad 06-05-2026 05:45 13,4 95 0,2 0,9 6 0 1011,5
23 La Piedad 06-05-2026 05:30 13,4 94 0,8 2,7 8 0 1011,3
22 La Piedad 06-05-2026 05:15 13,4 94 0,8 2,7 8 0 1011,3
21 La Piedad 06-05-2026 05:00 13,7 93 2,4 2,2 4 0 1011,5
20 La Piedad 06-05-2026 04:45 14,2 90 2 1,8 21 0 1011,4
19 La Piedad 06-05-2026 04:30 16,2 80 0 1,8 313 0 1011,3
18 La Piedad 06-05-2026 04:15 16,2 80 0 1,8 313 0 1011,3
17 La Piedad 06-05-2026 04:00 16,2 80 0 0,9 355 0 1011,1
16 La Piedad 06-05-2026 03:45 16,1 80 0 1,3 358 0 1011,1
15 La Piedad 06-05-2026 03:30 15,4 83 0 0,9 60 0 1011,9
14 La Piedad 06-05-2026 03:15 15,4 83 0 0,9 60 0 1011,9
13 La Piedad 06-05-2026 03:00 15,2 84 0 1,3 345 0 1012,3
12 La Piedad 06-05-2026 02:45 15 85 0 0,9 21 0 1012,4
11 La Piedad 06-05-2026 02:30 14,8 85 0 1,3 52 0 1012,5
10 La Piedad 06-05-2026 02:15 14,8 85 0 1,3 52 0 1012,5
9 La Piedad 06-05-2026 02:00 14,8 85 0 1,3 20 0 1012,4
8 La Piedad 06-05-2026 01:45 14,7 85 0 0,4 357 0 1012,1
7 La Piedad 06-05-2026 01:30 14,6 86 0 0,4 54 0 1012,4
6 La Piedad 06-05-2026 01:15 14,6 86 0 0,4 54 0 1012,4
5 La Piedad 06-05-2026 01:00 14,7 87 0 0 12 0 1012,7
4 La Piedad 06-05-2026 00:45 14,6 87 0 0,4 10 0 1012,8
3 La Piedad 06-05-2026 00:30 13,8 90 0 0,9 359 0 1013,2
2 La Piedad 06-05-2026 00:15 13,8 90 0 0,9 359 0 1013,2
1 La Piedad 06-05-2026 00:00 13,7 90 0 0 354 0 1013,5